Flight Track Log - Related Links

Times and Time Zones

All times are in EDT time to prevent confusion due to time zone crossing. See the JZA7927 flight status page for this flight to view local times or setup timezone preferences in your user account.

Time Position Orientation Groundspeed Altitude Reporting Facility
EDT Latitude Longitude Course Direction KTS MPH feet Rate Location/Type
Mon 06:12:16 AM 39.2000 -76.5833 322° Northwest 167 192 2,600  Level Potomac TRACON
Mon 06:12:58 AM 39.2333 -76.5667 21° North 191 220 3,000 750 Climbing Potomac TRACON
Mon 06:14:00 AM 39.2000 -77.0011 270° West  Level FlightAware Approximate
Mon 06:14:16 AM 39.3000 -76.5667 360° North 185 213 4,100  Level Potomac TRACON
Mon 06:15:00 AM 39.2000 -77.0867 270° West  Level FlightAware Approximate
Mon 06:15:17 AM 39.3333 -76.6333 303° West 184 212 5,100  Level Potomac TRACON
Mon 06:16:00 AM 39.2161 -77.1580 339° North  Level FlightAware Approximate
Mon 06:17:00 AM 39.2712 -77.2044 322° Northwest  Level FlightAware Approximate
Mon 06:17:17 AM 39.3500 -76.7500 281° West 177 204 6,900  Level Potomac TRACON
Mon 06:18:17 AM 39.3667 -76.8167 288° West 180 207 7,800 950 Climbing Potomac TRACON
Mon 06:19:17 AM 39.3833 -76.8667 293° West 174 200 8,800 889 Climbing Potomac TRACON
Mon 06:20:05 AM 39.3833 -76.9167 270° West 177 204 9,400 833 Climbing Potomac TRACON
Mon 06:21:05 AM 39.3833 -76.9833 270° West 179 206 10,300 824 Climbing Potomac TRACON
Mon 06:21:47 AM 39.3833 -77.0333 270° West 184 212 10,800 813 Climbing Potomac TRACON
Mon 06:22:41 AM 39.3667 -77.1000 252° West 187 215 11,600 847 Climbing Potomac TRACON
Mon 06:24:44 AM 39.4175 -77.1925 305° West 183 211 13,300 852 Climbing Washington Center
Mon 06:25:44 AM 39.4544 -77.2392 316° Northwest 183 211 14,200 793 Climbing Washington Center
Mon 06:26:45 AM 39.4956 -77.2831 321° Northwest 183 211 14,900 744 Climbing Washington Center
Mon 06:27:45 AM 39.5344 -77.3297 317° Northwest 189 217 15,700 744 Climbing Washington Center
Mon 06:28:46 AM 39.5733 -77.3764 317° Northwest 189 217 16,400 626 Climbing Washington Center
Mon 06:30:28 AM 39.6472 -77.4472 324° Northwest 193 222 17,400 593 Climbing New York Center
Mon 06:31:28 AM 39.7094 -77.4531 356° North 187 215 18,000 645 Climbing New York Center
Mon 06:32:29 AM 39.7572 -77.4550 358° North 198 228 18,700 650 Climbing New York Center
Mon 06:33:28 AM 39.8164 -77.4794 342° North 198 228 19,300 555 Climbing New York Center
Mon 06:34:28 AM 39.8672 -77.5006 342° North 198 228 19,800 347 Climbing New York Center
Mon 06:35:29 AM 39.9206 -77.5192 345° North 198 228 20,000 99 Climbing New York Center
Mon 06:36:29 AM 39.9839 -77.5389 347° North 209 241 20,000  Level New York Center
Mon 06:37:29 AM 40.0453 -77.5611 345° North 222 255 20,000  Level New York Center
Mon 06:38:30 AM 40.1106 -77.5839 345° North 222 255 20,000  Level New York Center
Mon 06:39:29 AM 40.1717 -77.6089 343° North 228 262 20,000  Level New York Center
Mon 06:40:28 AM 40.2353 -77.6286 347° North 228 262 20,000  Level New York Center
Mon 06:42:32 AM 40.3594 -77.6758 344° North 233 268 20,000  Level Cleveland Center
Mon 06:43:32 AM 40.4228 -77.7031 342° North 233 268 20,000  Level Cleveland Center
Mon 06:44:32 AM 40.4836 -77.7222 347° North 228 262 20,000  Level Cleveland Center
Mon 06:45:32 AM 40.5489 -77.7467 344° North 228 262 20,000  Level Cleveland Center
Mon 06:46:32 AM 40.6100 -77.7686 345° North 228 262 20,000  Level Cleveland Center
Mon 06:47:32 AM 40.6708 -77.7908 345° North 228 262 20,000  Level Cleveland Center
Mon 06:48:32 AM 40.7339 -77.8128 345° North 228 262 20,000  Level Cleveland Center
Mon 06:49:32 AM 40.7972 -77.8375 344° North 228 262 20,000  Level Cleveland Center
Mon 06:50:32 AM 40.8603 -77.8594 345° North 228 262 20,000  Level Cleveland Center
Mon 06:51:32 AM 40.9214 -77.8844 343° North 228 262 20,000  Level Cleveland Center
Mon 06:52:32 AM 40.9906 -77.9092 345° North 228 262 20,000  Level Cleveland Center
Mon 06:53:32 AM 41.0517 -77.9314 345° North 228 262 20,000  Level Cleveland Center
Mon 06:54:32 AM 41.1147 -77.9536 345° North 228 262 20,000  Level Cleveland Center
Mon 06:55:32 AM 41.1758 -77.9761 345° North 228 262 20,000  Level Cleveland Center
Mon 06:56:32 AM 41.2389 -78.0011 343° North 228 262 20,000  Level Cleveland Center
Mon 06:57:32 AM 41.2997 -78.0236 344° North 228 262 20,000  Level Cleveland Center
Mon 06:58:32 AM 41.3628 -78.0461 345° North 228 262 20,000  Level Cleveland Center
Mon 06:59:32 AM 41.4239 -78.0714 343° North 228 262 20,000  Level Cleveland Center
Mon 07:00:32 AM 41.4869 -78.0911 347° North 228 262 20,000  Level Cleveland Center
Mon 07:01:32 AM 41.5478 -78.1167 343° North 228 262 20,000  Level Cleveland Center
Mon 07:02:32 AM 41.6089 -78.1392 345° North 228 262 20,000  Level Cleveland Center
Mon 07:03:32 AM 41.6697 -78.1619 344° North 228 262 20,000  Level Cleveland Center
Mon 07:04:32 AM 41.7264 -78.1847 343° North 228 262 20,000  Level Cleveland Center
Mon 07:05:32 AM 41.7894 -78.2075 345° North 228 262 20,000  Level Cleveland Center
Mon 07:06:32 AM 41.8525 -78.2303 345° North 228 262 20,000  Level Cleveland Center
Mon 07:07:32 AM 41.9156 -78.2531 345° North 228 262 20,000  Level Cleveland Center
Mon 07:08:32 AM 41.9744 -78.2789 342° North 228 262 20,000  Level Cleveland Center
Mon 07:09:32 AM 42.0375 -78.3019 345° North 228 262 20,000  Level Cleveland Center
Mon 07:10:32 AM 42.1006 -78.3247 345° North 228 262 20,000  Level Cleveland Center
Mon 07:11:32 AM 42.1614 -78.3506 343° North 228 262 20,000  Level Cleveland Center
Mon 07:12:32 AM 42.2328 -78.3761 345° North 228 262 20,000  Level Cleveland Center
Mon 07:13:32 AM 42.2958 -78.4019 343° North 228 262 20,000  Level Cleveland Center
Mon 07:14:32 AM 42.3589 -78.4253 345° North 228 262 20,000  Level Cleveland Center
Mon 07:15:32 AM 42.4217 -78.4511 343° North 228 262 20,000  Level Cleveland Center
Mon 07:16:32 AM 42.4847 -78.4744 345° North 228 262 20,000 -150 Level Cleveland Center
Mon 07:17:32 AM 42.5478 -78.5006 343° North 228 262 19,700 -650 Descending Cleveland Center
Mon 07:18:32 AM 42.5989 -78.5636 318° Northwest 233 268 18,700 -950 Descending Cleveland Center
Mon 07:19:32 AM 42.6583 -78.6294 321° Northwest 250 288 17,800 -1,000 Descending Cleveland Center
Mon 07:20:32 AM 42.7219 -78.6953 323° Northwest 268 308 16,700 -1,050 Descending Cleveland Center
Mon 07:21:32 AM 42.7814 -78.7614 321° Northwest 268 308 15,700 -1,000 Descending Cleveland Center
Mon 07:22:32 AM 42.8389 -78.8306 319° Northwest 268 308 14,700 -850 Descending Cleveland Center
Mon 07:23:32 AM 42.8981 -78.8942 322° Northwest 273 314 14,000 -457 Descending Cleveland Center
Mon 07:24:04 AM 42.9167 -78.9000 347° North 270 311 14,000  Level Toronto Center
Mon 07:25:04 AM 42.9667 -78.9667 316° Northwest 260 299 14,000  Level Toronto Center
Mon 07:26:04 AM 43.0333 -79.0333 324° Northwest 250 288 14,000  Level Toronto Center
Mon 07:27:04 AM 43.0833 -79.0833 324° Northwest 250 288 14,000 -400 Level Toronto Center
Mon 07:28:04 AM 43.1333 -79.1500 316° Northwest 250 288 13,200 -900 Descending Toronto Center
Mon 07:29:04 AM 43.1833 -79.2167 316° Northwest 270 311 12,200 -1,000 Descending Toronto Center
Mon 07:30:04 AM 43.2500 -79.2833 324° Northwest 280 322 11,200 -950 Descending Toronto Center
Mon 07:31:04 AM 43.3167 -79.3500 324° Northwest 280 322 10,300 -900 Descending Toronto Center
Mon 07:32:04 AM 43.3833 -79.3833 340° North 270 311 9,400 -950 Descending Toronto Center
Mon 07:33:04 AM 43.4500 -79.4333 331° Northwest 270 311 8,400 -700 Descending Toronto Center
Mon 07:34:04 AM 43.5167 -79.4667 340° North 260 299 8,000 -200 Descending Toronto Center
Mon 07:35:04 AM 43.5833 -79.4667 360° North 240 276 8,000 -600 Level Toronto Center
Mon 07:36:04 AM 43.6333 -79.4500 14° North 220 253 6,800 -1,700 Descending Toronto Center
Mon 07:37:04 AM 43.6833 -79.3833 44° Northeast 230 265 4,600 -1,900 Descending Toronto Center
Mon 07:38:04 AM 43.7333 -79.4000 346° North 220 253 3,000 -850 Descending Toronto Center
Mon 07:39:04 AM 43.7500 -79.4500 295° West 190 219 2,900 -500 Descending Toronto Center
Mon 07:40:04 AM 43.7167 -79.5000 227° Southwest 180 207 2,000 -900 Descending Toronto Center

Login

Don't have an account? Register now (free) for customized features, flight alerts, and more!